Time;durP1;ratioP1;P1;durP2;ratioP2;P2;SDS_P1;SDS_P2;PMS_P1;PMS_P2;Temp;Humidity;BMP_temperature;BMP_pressure;BME280_temperature;BME280_humidity;BME280_pressure;Samples;Min_cycle;Max_cycle;Signal;HPM_P1;HPM_P2
2022/11/18 00:01:37;;;;;;;47.90;30.50;;;;;;;10.53;100.00;93864.56;5074704;28;20491;-77
2022/11/18 00:04:04;;;;;;;42.17;27.60;;;;;;;10.48;100.00;93869.47;5074370;28;20449;-77
2022/11/18 00:06:32;;;;;;;42.30;29.87;;;;;;;10.45;100.00;93872.41;5074130;28;20504;-77
2022/11/18 00:09:00;;;;;;;40.10;25.33;;;;;;;10.43;100.00;93876.97;5074033;28;20450;-77
2022/11/18 00:14:19;;;;;;;40.10;27.00;;;;;;;10.37;100.00;93877.56;5074250;28;20433;-77
2022/11/18 00:16:47;;;;;;;26.90;19.67;;;;;;;10.26;100.00;93872.59;5074243;28;20453;-77
2022/11/18 00:19:14;;;;;;;35.37;20.30;;;;;;;10.22;100.00;93875.53;5073884;28;20857;-77
2022/11/18 00:21:42;;;;;;;29.30;20.80;;;;;;;10.21;100.00;93878.28;5073763;28;21090;-77
2022/11/18 00:24:09;;;;;;;39.57;21.43;;;;;;;10.21;100.00;93867.81;5074137;28;20450;-77
2022/11/18 00:26:36;;;;;;;37.27;21.07;;;;;;;10.14;100.00;93867.56;5073944;28;20451;-77
2022/11/18 00:29:03;;;;;;;35.73;22.33;;;;;;;10.17;100.00;93872.50;5073632;28;20843;-77
2022/11/18 00:31:30;;;;;;;29.13;20.17;;;;;;;10.16;100.00;93875.28;5073666;28;20564;-77
2022/11/18 00:33:57;;;;;;;26.90;17.23;;;;;;;10.10;100.00;93865.38;5073545;28;20524;-77
2022/11/18 00:36:24;;;;;;;25.00;15.37;;;;;;;10.17;100.00;93876.94;5073611;28;20443;-77
2022/11/18 00:38:52;;;;;;;24.87;16.60;;;;;;;10.13;100.00;93878.22;5054846;28;20446;-77
2022/11/18 00:41:19;;;;;;;20.30;14.07;;;;;;;10.10;100.00;93868.00;5073598;28;20848;-77
2022/11/18 00:43:44;;;;;;;17.23;9.77;;;;;;;10.11;100.00;93872.28;5073416;28;20452;-77
2022/11/18 00:46:12;;;;;;;17.00;10.83;;;;;;;10.04;100.00;93861.56;5071293;28;20948;-77
2022/11/18 00:48:40;;;;;;;17.90;12.93;;;;;;;9.99;100.00;93868.25;5073392;28;20956;-77
2022/11/18 00:51:10;;;;;;;28.60;12.63;;;;;;;9.82;100.00;93862.03;5073252;28;20448;-77
2022/11/18 00:53:37;;;;;;;28.20;12.20;;;;;;;9.86;100.00;93863.41;5073534;28;20486;-77
2022/11/18 00:56:06;;;;;;;14.83;10.90;;;;;;;9.89;100.00;93868.34;5073473;28;20450;-77
2022/11/18 00:58:33;;;;;;;13.73;9.37;;;;;;;9.89;100.00;93860.50;5073247;28;20457;-77
2022/11/18 01:01:00;;;;;;;11.07;8.87;;;;;;;9.89;100.00;93858.69;5073120;28;20991;-77
2022/11/18 01:03:28;;;;;;;13.40;8.20;;;;;;;9.96;100.00;93868.56;5072873;28;20819;-77
2022/11/18 01:05:54;;;;;;;12.73;8.90;;;;;;;9.94;100.00;93860.84;5054386;28;20449;-77
2022/11/18 01:08:22;;;;;;;11.83;9.60;;;;;;;9.97;100.00;93863.16;5073153;28;20508;-77
2022/11/18 01:10:51;;;;;;;15.57;9.80;;;;;;;9.98;100.00;93862.19;5072806;28;20934;-77
2022/11/18 01:13:21;;;;;;;15.53;10.03;;;;;;;9.97;100.00;93855.31;5072748;28;20934;-77
2022/11/18 01:15:51;;;;;;;12.47;9.70;;;;;;;10.02;100.00;93860.09;5072856;28;20986;-77
2022/11/18 01:18:19;;;;;;;12.83;8.73;;;;;;;10.03;100.00;93859.94;5072963;28;20446;-76
2022/11/18 01:20:46;;;;;;;11.33;8.83;;;;;;;10.03;100.00;93853.88;5072665;28;21008;-77
2022/11/18 01:23:14;;;;;;;11.63;8.80;;;;;;;9.99;100.00;93855.16;5072793;28;20443;-77
2022/11/18 01:25:43;;;;;;;21.57;13.70;;;;;;;9.86;100.00;93856.38;5072629;28;20449;-77
2022/11/18 01:28:10;;;;;;;24.30;14.40;;;;;;;9.79;100.00;93870.19;5072627;28;20441;-77
2022/11/18 01:30:40;;;;;;;30.30;21.07;;;;;;;9.74;100.00;93868.03;5036997;28;20500;-77
2022/11/18 01:33:07;;;;;;;28.90;18.73;;;;;;;9.56;100.00;93867.22;5072773;28;20448;-77
2022/11/18 01:35:35;;;;;;;27.17;19.57;;;;;;;9.41;100.00;93866.09;5072648;28;20502;-77
2022/11/18 01:38:02;;;;;;;33.17;20.60;;;;;;;9.34;100.00;93872.88;5072127;28;20952;-77
2022/11/18 01:40:29;;;;;;;35.40;21.13;;;;;;;9.31;100.00;93874.00;5072389;28;20448;-77
2022/11/18 01:42:56;;;;;;;46.10;26.33;;;;;;;9.12;100.00;93864.47;5053315;28;20543;-77
2022/11/18 01:45:31;;;;;;;35.47;22.90;;;;;;;9.15;100.00;93869.41;5072965;28;20470;-77
2022/11/18 01:48:04;;;;;;;36.60;22.43;;;;;;;9.15;100.00;93864.16;5072289;28;20936;-77
2022/11/18 01:50:33;;;;;;;31.60;23.00;;;;;;;9.16;100.00;93881.53;5072307;28;20430;-77
2022/11/18 01:53:04;;;;;;;37.60;22.07;;;;;;;9.19;100.00;93862.09;5071979;28;20457;-77
2022/11/18 01:55:33;;;;;;;28.03;21.87;;;;;;;9.12;100.00;93859.22;5072111;28;20445;-77
2022/11/18 01:58:06;;;;;;;35.67;21.47;;;;;;;9.14;100.00;93869.56;5072397;28;20528;-77
2022/11/18 02:00:33;;;;;;;31.87;19.70;;;;;;;9.15;100.00;93873.81;5071692;28;21030;-77
2022/11/18 02:03:03;;;;;;;26.23;18.70;;;;;;;9.13;100.00;93875.75;5072136;28;20547;-77
2022/11/18 02:05:30;;;;;;;34.40;22.17;;;;;;;9.17;100.00;93874.50;5071994;28;20442;-77
2022/11/18 02:07:58;;;;;;;23.60;18.43;;;;;;;9.20;100.00;93866.34;5071624;28;20485;-77
2022/11/18 02:10:25;;;;;;;32.40;21.10;;;;;;;9.06;100.00;93869.47;5072090;28;20865;-77
2022/11/18 02:12:53;;;;;;;34.67;23.30;;;;;;;9.05;100.00;93879.13;5071905;28;20928;-77
2022/11/18 02:15:30;;;;;;;27.50;22.10;;;;;;;9.08;100.00;93878.81;5071956;28;21013;-77
2022/11/18 02:18:07;;;;;;;29.93;20.50;;;;;;;8.95;100.00;93875.69;5071760;28;20501;-77
2022/11/18 02:20:39;;;;;;;29.17;18.70;;;;;;;9.04;100.00;93872.25;5071866;28;20944;-77
2022/11/18 02:23:36;;;;;;;20.13;16.27;;;;;;;9.12;100.00;93874.94;5070990;28;20515;-77
2022/11/18 02:26:28;;;;;;;19.63;15.87;;;;;;;9.18;100.00;93871.72;5071689;28;20941;-77
2022/11/18 02:29:03;;;;;;;20.30;13.63;;;;;;;9.24;100.00;93873.75;5029250;28;20447;-75
2022/11/18 02:31:34;;;;;;;23.73;15.50;;;;;;;9.23;100.00;93866.03;5029228;28;20442;-75
2022/11/18 02:34:07;;;;;;;22.63;15.20;;;;;;;9.23;100.00;93869.50;5029063;28;20443;-75
2022/11/18 02:36:42;;;;;;;29.07;17.00;;;;;;;9.22;100.00;93869.63;5029332;28;20499;-75
2022/11/18 02:39:16;;;;;;;24.87;14.37;;;;;;;9.25;100.00;93870.19;5029231;28;20500;-76
2022/11/18 02:41:46;;;;;;;33.93;15.00;;;;;;;9.23;100.00;93874.72;5029158;28;20495;-76
2022/11/18 02:44:16;;;;;;;29.03;15.27;;;;;;;9.26;100.00;93861.38;5029165;28;20439;-76
2022/11/18 02:46:47;;;;;;;28.63;15.00;;;;;;;9.18;100.00;93856.03;5029177;28;20984;-76
2022/11/18 02:49:20;;;;;;;32.03;15.60;;;;;;;9.18;100.00;93861.25;5029269;28;20457;-76
2022/11/18 02:51:48;;;;;;;47.73;19.70;;;;;;;9.16;100.00;93873.66;5029170;28;20442;-76
2022/11/18 02:54:17;;;;;;;74.23;28.17;;;;;;;9.08;100.00;93860.50;5029025;28;20904;-76
2022/11/18 02:56:46;;;;;;;53.03;26.13;;;;;;;9.00;100.00;93855.19;5029147;28;20443;-76
2022/11/18 02:59:18;;;;;;;76.17;28.67;;;;;;;8.96;100.00;93861.66;5028892;28;20451;-76
2022/11/18 03:01:44;;;;;;;61.33;20.03;;;;;;;8.79;100.00;93863.25;5028635;28;20560;-77
2022/11/18 03:04:12;;;;;;;35.30;19.87;;;;;;;8.80;100.00;93866.69;4979739;28;20892;-76
2022/11/18 03:06:41;;;;;;;42.40;21.13;;;;;;;8.78;100.00;93861.63;5060953;28;20440;-76
2022/11/18 03:09:15;;;;;;;40.90;19.33;;;;;;;8.81;100.00;93868.34;5071640;28;20463;-76
2022/11/18 03:11:50;;;;;;;44.27;20.10;;;;;;;8.81;100.00;93869.16;5071608;28;20518;-76
2022/11/18 03:14:28;;;;;;;28.87;17.90;;;;;;;8.71;100.00;93871.00;5086063;28;20486;-76
2022/11/18 03:16:59;;;;;;;36.73;21.20;;;;;;;8.62;100.00;93875.28;5071173;28;20445;-75
2022/11/18 03:19:36;;;;;;;39.70;22.33;;;;;;;8.60;100.00;93876.41;5071573;28;20543;-75
2022/11/18 03:22:11;;;;;;;60.53;23.13;;;;;;;8.56;100.00;93857.56;5071130;28;20541;-75
2022/11/18 03:24:42;;;;;;;49.47;21.10;;;;;;;8.54;100.00;93859.50;5071054;28;20507;-75
2022/11/18 03:27:16;;;;;;;44.83;21.80;;;;;;;8.57;100.00;93869.69;5071118;28;20444;-76
2022/11/18 03:29:49;;;;;;;51.30;20.53;;;;;;;8.59;100.00;93870.34;5071347;28;20780;-76
2022/11/18 03:32:20;;;;;;;36.67;20.77;;;;;;;8.61;100.00;93864.97;5071212;28;20449;-76
2022/11/18 03:34:49;;;;;;;59.87;21.70;;;;;;;8.62;100.00;93867.44;5055803;28;20440;-76
2022/11/18 03:37:19;;;;;;;49.43;20.50;;;;;;;8.28;100.00;93869.72;5074852;28;20437;-76
2022/11/18 03:39:50;;;;;;;67.20;21.33;;;;;;;8.06;100.00;93860.41;5074633;28;20441;-76
2022/11/18 03:42:24;;;;;;;59.70;18.70;;;;;;;8.13;100.00;93871.16;5074528;28;20494;-76
2022/11/18 03:44:56;;;;;;;58.67;19.63;;;;;;;8.13;100.00;93862.50;5074658;28;20506;-76
2022/11/18 03:47:27;;;;;;;114.47;26.20;;;;;;;7.77;100.00;93865.66;5074652;28;20449;-76
2022/11/18 03:50:00;;;;;;;60.57;20.57;;;;;;;7.89;100.00;93861.16;5074537;28;21001;-76
2022/11/18 03:52:31;;;;;;;69.30;22.47;;;;;;;7.86;100.00;93858.00;5089050;28;20444;-76
2022/11/18 03:55:02;;;;;;;49.90;21.43;;;;;;;7.91;100.00;93866.22;5074636;28;20440;-76
2022/11/18 03:57:37;;;;;;;34.17;20.27;;;;;;;8.02;100.00;93856.44;5074474;28;20444;-76
2022/11/18 04:00:09;;;;;;;99.27;22.30;;;;;;;8.04;100.00;93841.44;5074046;28;20479;-76
2022/11/18 04:02:37;;;;;;;89.53;22.37;;;;;;;8.03;100.00;93845.03;5074054;28;20546;-77
2022/11/18 04:05:09;;;;;;;51.97;20.27;;;;;;;8.03;100.00;93845.03;5074304;28;20441;-76
2022/11/18 04:07:42;;;;;;;25.60;16.83;;;;;;;8.14;100.00;93862.34;5074222;28;20498;-77
2022/11/18 04:10:13;;;;;;;72.87;40.70;;;;;;;8.24;100.00;93854.47;5074221;28;20451;-77
2022/11/18 04:12:45;;;;;;;112.90;32.57;;;;;;;7.96;100.00;93833.50;5074105;28;20460;-76
2022/11/18 04:15:14;;;;;;;35.80;25.10;;;;;;;8.03;100.00;93878.97;5074344;28;20421;-77
2022/11/18 04:17:42;;;;;;;120.57;36.63;;;;;;;8.10;100.00;93865.38;5073860;28;20939;-77
2022/11/18 04:20:14;;;;;;;93.27;30.03;;;;;;;7.80;100.00;93859.34;5038507;28;20804;-76
2022/11/18 04:22:41;;;;;;;70.30;27.90;;;;;;;7.97;100.00;93858.66;5073897;28;20492;-76
2022/11/18 04:25:08;;;;;;;137.00;34.83;;;;;;;7.84;100.00;93852.09;5073982;28;20448;-76
2022/11/18 04:27:34;;;;;;;68.67;28.10;;;;;;;7.63;100.00;93863.50;5054873;28;20458;-77
2022/11/18 04:30:02;;;;;;;57.60;25.47;;;;;;;7.78;100.00;93866.50;5073753;28;20444;-76
2022/11/18 04:32:30;;;;;;;144.33;28.43;;;;;;;7.76;100.00;93855.38;5073665;28;21034;-76
2022/11/18 04:34:56;;;;;;;80.47;26.67;;;;;;;7.72;100.00;93862.66;5073603;28;20444;-77
2022/11/18 04:37:23;;;;;;;82.20;25.80;;;;;;;7.77;100.00;93880.53;5074223;28;20452;-77
2022/11/18 04:39:50;;;;;;;77.35;27.67;;;;;;;7.93;100.00;93888.63;5072483;28;20917;-77
2022/11/18 04:42:17;;;;;;;104.23;34.10;;;;;;;7.99;100.00;93871.56;5073306;28;20215;-78
2022/11/18 04:44:44;;;;;;;70.80;29.27;;;;;;;7.93;100.00;93857.28;5072896;28;20441;-77
2022/11/18 04:47:11;;;;;;;57.03;26.87;;;;;;;7.90;100.00;93881.06;5073513;28;20445;-78
2022/11/18 04:49:39;;;;;;;62.23;23.53;;;;;;;7.95;100.00;93878.88;5073295;28;20445;-77
2022/11/18 04:52:06;;;;;;;104.00;26.00;;;;;;;7.95;100.00;93863.19;5073460;28;20449;-77
2022/11/18 04:54:33;;;;;;;47.87;24.03;;;;;;;8.03;100.00;93873.75;5073236;28;20444;-76
2022/11/18 04:57:00;;;;;;;90.47;27.40;;;;;;;8.12;100.00;93884.34;5038086;28;20805;-77
2022/11/18 04:59:28;;;;;;;43.33;25.70;;;;;;;8.24;100.00;93878.00;5054775;28;20494;-77
2022/11/18 05:01:56;;;;;;;40.33;24.57;;;;;;;8.37;100.00;93873.31;5074741;28;20488;-76
2022/11/18 05:04:25;;;;;;;92.20;25.20;;;;;;;8.39;100.00;93879.25;5073082;28;20449;-77
2022/11/18 05:06:53;;;;;;;97.67;27.43;;;;;;;8.41;100.00;93877.31;5037425;28;20494;-76
2022/11/18 05:09:20;;;;;;;45.30;24.30;;;;;;;8.52;100.00;93877.13;5053735;28;20456;-77
2022/11/18 05:14:31;;;;;;;45.23;24.30;;;;;;;8.63;100.00;93879.56;5092397;28;20510;-77
2022/11/18 05:17:01;;;;;;;66.30;26.07;;;;;;;8.74;100.00;93870.72;5093597;28;20444;-77
2022/11/18 05:19:29;;;;;;;86.17;24.70;;;;;;;8.53;100.00;93868.31;5093528;28;20449;-77
2022/11/18 05:21:58;;;;;;;65.67;25.00;;;;;;;8.49;100.00;93882.66;5080514;28;20840;-76
2022/11/18 05:24:25;;;;;;;33.97;20.50;;;;;;;10.56;100.00;93887.88;5073938;28;20444;-78
2022/11/18 05:26:52;;;;;;;60.07;21.30;;;;;;;10.49;100.00;93892.91;5073189;28;20444;-76
2022/11/18 05:29:19;;;;;;;116.00;23.83;;;;;;;10.14;100.00;93885.09;5073220;28;20925;-76
2022/11/18 05:31:47;;;;;;;54.30;19.13;;;;;;;9.99;100.00;93894.47;5072967;28;20499;-76
2022/11/18 05:34:14;;;;;;;66.30;23.77;;;;;;;9.88;100.00;93890.28;5073262;28;20446;-75
2022/11/18 05:36:41;;;;;;;154.80;27.10;;;;;;;9.71;100.00;93880.63;5073147;28;20480;-76
2022/11/18 05:39:09;;;;;;;73.47;23.73;;;;;;;9.61;100.00;93893.78;5072794;28;20446;-76
2022/11/18 05:44:20;;;;;;;113.07;24.60;;;;;;;9.27;100.00;93880.53;5073076;28;20432;-76
2022/11/18 05:46:46;;;;;;;116.90;27.90;;;;;;;9.20;100.00;93871.56;5072506;28;20447;-76
2022/11/18 05:49:13;;;;;;;75.80;24.83;;;;;;;9.13;100.00;93879.19;5072950;28;20449;-76
2022/11/18 05:51:40;;;;;;;106.00;26.40;;;;;;;9.11;100.00;93894.22;5073278;28;20449;-76
2022/11/18 05:54:10;;;;;;;44.47;22.70;;;;;;;8.87;100.00;93873.00;5073234;28;20494;-76
2022/11/18 05:56:39;;;;;;;108.87;22.20;;;;;;;8.73;100.00;93889.19;5071929;28;20519;-77
2022/11/18 05:59:06;;;;;;;49.33;21.63;;;;;;;8.79;100.00;93889.41;5053714;28;20433;-76
2022/11/18 06:01:37;;;;;;;57.57;22.50;;;;;;;8.57;100.00;93874.09;5072486;28;20837;-76
2022/11/18 06:04:09;;;;;;;68.00;21.80;;;;;;;8.52;100.00;93876.31;5053603;28;20647;-76
2022/11/18 06:06:36;;;;;;;109.27;22.37;;;;;;;8.51;100.00;93875.47;5082117;28;20451;-76
2022/11/18 06:09:05;;;;;;;103.37;24.20;;;;;;;8.54;100.00;93885.66;5092803;28;20451;-76
2022/11/18 06:11:41;;;;;;;61.13;21.60;;;;;;;8.65;100.00;93880.22;5092797;28;20440;-76
2022/11/18 06:14:14;;;;;;;130.97;25.50;;;;;;;8.62;100.00;93877.91;5092701;28;20446;-76
2022/11/18 06:16:48;;;;;;;63.23;21.67;;;;;;;8.83;100.00;93879.50;5092751;28;20448;-76
2022/11/18 06:19:16;;;;;;;62.17;27.20;;;;;;;8.92;100.00;93879.44;5087590;28;20486;-76
2022/11/18 06:21:43;;;;;;;141.80;45.97;;;;;;;8.83;100.00;93866.41;5076069;28;20456;-76
2022/11/18 06:24:11;;;;;;;70.13;37.03;;;;;;;8.90;100.00;93859.63;5078817;28;20483;-75
2022/11/18 06:26:40;;;;;;;79.40;37.50;;;;;;;8.98;100.00;93878.88;5091512;28;20454;-76
2022/11/18 06:29:10;;;;;;;119.30;45.67;;;;;;;8.95;100.00;93871.28;5078073;28;20805;-76
2022/11/18 06:31:37;;;;;;;106.87;40.90;;;;;;;8.76;100.00;93867.97;5078122;28;21037;-76
2022/11/18 06:34:03;;;;;;;99.13;42.80;;;;;;;8.82;100.00;93862.97;5082633;28;20474;-77
2022/11/18 06:36:30;;;;;;;94.30;39.33;;;;;;;8.94;100.00;93871.44;5080871;28;20444;-75
2022/11/18 06:39:01;;;;;;;75.27;39.00;;;;;;;9.08;100.00;93881.44;5085286;28;20448;-77
2022/11/18 06:41:28;;;;;;;70.07;34.90;;;;;;;9.21;100.00;93868.00;5091943;28;21177;-76
2022/11/18 06:43:57;;;;;;;133.90;37.10;;;;;;;9.24;100.00;93846.75;5075991;28;20489;-75
2022/11/18 06:49:08;;;;;;;65.27;37.87;;;;;;;9.37;100.00;93870.78;5092177;28;20447;-76
2022/11/18 06:51:35;;;;;;;135.83;46.23;;;;;;;9.43;100.00;93866.75;5092177;28;20480;-76
2022/11/18 06:54:02;;;;;;;147.37;42.77;;;;;;;9.46;100.00;93863.84;5072583;28;20450;-75
2022/11/18 06:56:29;;;;;;;170.93;39.73;;;;;;;9.26;100.00;93863.16;5086443;28;20926;-76
2022/11/18 06:58:59;;;;;;;159.13;38.50;;;;;;;9.34;100.00;93868.47;5089826;28;20440;-76
2022/11/18 07:01:27;;;;;;;230.23;41.50;;;;;;;9.30;100.00;93872.38;5072387;28;20575;-76
2022/11/18 07:03:54;;;;;;;62.07;35.20;;;;;;;9.45;100.00;93885.75;5072106;28;20964;-75
2022/11/18 07:06:22;;;;;;;116.93;38.60;;;;;;;9.49;100.00;93872.22;5084463;28;20443;-75
2022/11/18 07:08:51;;;;;;;118.07;37.00;;;;;;;9.52;100.00;93881.56;5094776;28;20452;-76
2022/11/18 07:11:19;;;;;;;136.07;45.17;;;;;;;9.54;100.00;93882.25;5060070;28;20436;-76
2022/11/18 07:13:47;;;;;;;93.97;36.43;;;;;;;9.46;100.00;93880.38;5095848;28;20449;-76
2022/11/18 07:16:17;;;;;;;166.73;39.37;;;;;;;9.37;100.00;93876.03;5096205;28;20451;-75
2022/11/18 07:18:44;;;;;;;143.33;34.17;;;;;;;9.52;100.00;93871.91;5096237;28;20535;-76
2022/11/18 07:21:13;;;;;;;104.10;35.57;;;;;;;9.64;100.00;93877.78;5096153;28;20498;-76
2022/11/18 07:23:41;;;;;;;105.93;34.00;;;;;;;9.77;100.00;93859.88;5093012;28;20495;-76
2022/11/18 07:26:08;;;;;;;79.03;39.80;;;;;;;9.59;100.00;93845.97;5092817;28;20443;-76
2022/11/18 07:28:35;;;;;;;87.17;44.93;;;;;;;9.42;100.00;93833.69;5086208;28;20496;-77
2022/11/18 07:31:03;;;;;;;99.30;33.20;;;;;;;9.59;100.00;93836.31;5082587;28;20855;-77
2022/11/18 07:33:32;;;;;;;99.10;33.43;;;;;;;9.71;100.00;93850.00;5079124;28;20552;-76
2022/11/18 07:36:03;;;;;;;84.13;29.23;;;;;;;9.83;100.00;93833.09;5075814;28;20446;-76
2022/11/18 07:38:30;;;;;;;45.50;24.13;;;;;;;10.00;100.00;93848.94;5088254;28;20457;-75
2022/11/18 07:41:03;;;;;;;59.77;26.30;;;;;;;10.08;100.00;93841.13;5095947;28;20442;-76
2022/11/18 07:43:30;;;;;;;53.77;22.80;;;;;;;10.15;100.00;93816.78;5095461;28;20489;-76
2022/11/18 07:45:56;;;;;;;56.83;23.70;;;;;;;10.17;100.00;93817.44;5095266;28;20934;-76
2022/11/18 07:48:23;;;;;;;38.90;22.10;;;;;;;10.11;100.00;93838.19;5095383;28;20439;-75
2022/11/18 07:50:52;;;;;;;80.03;34.67;;;;;;;10.27;100.00;93840.16;5095332;28;20771;-74
2022/11/18 07:53:19;;;;;;;64.50;24.53;;;;;;;10.41;100.00;93829.09;5095167;28;20502;-75
2022/11/18 07:55:46;;;;;;;37.27;20.10;;;;;;;10.42;100.00;93821.09;5076117;28;20455;-75
2022/11/18 07:58:13;;;;;;;71.87;27.00;;;;;;;10.47;100.00;93831.09;5059623;28;20538;-76
2022/11/18 08:00:39;;;;;;;51.73;17.33;;;;;;;10.42;100.00;93843.88;5094797;28;20525;-75
2022/11/18 08:03:06;;;;;;;61.93;15.37;;;;;;;10.32;100.00;93841.31;5095192;28;20492;-75
2022/11/18 08:05:33;;;;;;;48.90;19.20;;;;;;;10.27;100.00;93825.25;5095624;28;20504;-76
2022/11/18 08:08:01;;;;;;;46.93;18.83;;;;;;;10.33;100.00;93835.09;5095439;28;20449;-76
2022/11/18 08:10:28;;;;;;;62.87;22.00;;;;;;;10.35;100.00;93842.81;5075812;28;20455;-76
2022/11/18 08:12:57;;;;;;;88.20;23.93;;;;;;;10.43;100.00;93869.94;5094993;28;20458;-75
2022/11/18 08:15:24;;;;;;;49.93;25.33;;;;;;;10.45;100.00;93885.50;5094740;28;20452;-75
2022/11/18 08:17:51;;;;;;;51.33;25.07;;;;;;;10.48;100.00;93883.41;5094438;28;20451;-76
2022/11/18 08:20:18;;;;;;;73.07;29.13;;;;;;;10.59;100.00;93878.88;5092904;28;20442;-76
2022/11/18 08:22:44;;;;;;;58.40;28.60;;;;;;;10.71;100.00;93860.09;5074986;28;20501;-77
2022/11/18 08:25:13;;;;;;;64.57;29.33;;;;;;;10.83;100.00;93871.13;5093485;28;20453;-75
2022/11/18 08:27:39;;;;;;;48.93;26.43;;;;;;;10.99;100.00;93873.03;5094365;28;20442;-75
2022/11/18 08:30:07;;;;;;;45.70;26.90;;;;;;;11.22;100.00;93862.75;5094577;28;20933;-76
2022/11/18 08:32:34;;;;;;;45.97;23.27;;;;;;;11.36;100.00;93854.28;5094447;28;20458;-75
2022/11/18 08:35:01;;;;;;;30.90;16.93;;;;;;;11.45;100.00;93843.63;5094387;28;20811;-76
2022/11/18 08:37:27;;;;;;;45.43;21.90;;;;;;;11.29;100.00;93834.91;5094521;28;20965;-76
2022/11/18 08:39:54;;;;;;;35.73;21.90;;;;;;;11.52;100.00;93832.47;5094108;28;20584;-76
2022/11/18 08:42:24;;;;;;;37.23;23.63;;;;;;;11.71;100.00;93833.00;5094532;28;20447;-77
2022/11/18 08:44:51;;;;;;;36.23;21.30;;;;;;;11.77;100.00;93821.81;5094172;28;20491;-76
2022/11/18 08:47:18;;;;;;;36.80;22.07;;;;;;;11.74;100.00;93822.16;5094155;28;20770;-76
2022/11/18 08:49:44;;;;;;;47.00;25.80;;;;;;;11.77;100.00;93815.75;5094097;28;20505;-76
2022/11/18 08:52:11;;;;;;;52.97;26.67;;;;;;;11.90;100.00;93810.03;5093959;28;20938;-75
2022/11/18 08:54:38;;;;;;;37.50;23.10;;;;;;;11.79;100.00;93806.72;5094596;28;20774;-75
2022/11/18 08:57:05;;;;;;;38.47;22.03;;;;;;;11.85;100.00;93793.91;5094227;28;20447;-75
2022/11/18 08:59:33;;;;;;;49.60;23.97;;;;;;;11.85;100.00;93772.88;5094028;28;20447;-75
2022/11/18 09:02:00;;;;;;;43.87;24.30;;;;;;;11.84;100.00;93768.63;5074860;28;20453;-76
2022/11/18 09:04:27;;;;;;;42.30;22.07;;;;;;;11.83;100.00;93752.03;5093976;28;20502;-75
2022/11/18 09:06:53;;;;;;;40.70;23.83;;;;;;;11.96;100.00;93746.28;5074781;28;20439;-75
2022/11/18 09:09:20;;;;;;;44.07;27.07;;;;;;;12.03;100.00;93742.81;5093621;28;20915;-74
2022/11/18 09:48:18;;;;;;;54.00;29.80;;;;;;;12.75;100.00;93713.81;5040685;28;1325995;-80
2022/11/18 09:50:44;;;;;;;59.30;31.40;;;;;;;12.79;100.00;93709.84;5033333;28;20336;-79
2022/11/18 09:53:19;;;;;;;52.07;29.67;;;;;;;12.71;100.00;93688.81;5069234;28;20447;-79
2022/11/18 09:55:47;;;;;;;67.43;35.07;;;;;;;12.78;100.00;93691.59;5069282;28;20923;-79
2022/11/18 09:58:18;;;;;;;80.47;37.10;;;;;;;12.83;100.00;93695.34;5068637;28;20977;-79
2022/11/18 10:00:45;;;;;;;70.47;37.43;;;;;;;12.90;100.00;93693.66;5068877;28;20440;-79
2022/11/18 10:03:23;;;;;;;66.23;36.30;;;;;;;12.89;100.00;93676.22;5017605;28;20517;-79
2022/11/18 10:05:57;;;;;;;61.20;34.33;;;;;;;12.68;100.00;93682.06;5068239;28;20480;-79
2022/11/18 10:08:28;;;;;;;59.97;31.67;;;;;;;12.71;100.00;93673.84;5069052;28;20453;-80
2022/11/18 10:11:03;;;;;;;54.60;27.97;;;;;;;12.83;100.00;93692.72;5068960;28;20449;-79
2022/11/18 10:13:45;;;;;;;51.60;28.70;;;;;;;12.63;100.00;93684.41;5033243;28;20946;-79
2022/11/18 10:16:27;;;;;;;52.17;27.00;;;;;;;12.40;100.00;93667.75;5068457;28;20445;-78
2022/11/18 10:19:06;;;;;;;46.33;27.93;;;;;;;12.40;100.00;93684.34;5068907;28;20498;-79
2022/11/18 10:53:31;;;;;;;47.60;27.63;;;;;;;13.19;100.00;93613.16;5030023;28;1567718;-82
2022/11/18 10:55:59;;;;;;;37.30;23.40;;;;;;;13.35;100.00;93597.22;5066428;28;20230;-82
2022/11/18 10:58:26;;;;;;;14.40;10.50;;;;;;;13.59;96.42;93618.09;5077764;28;20522;-82
2022/11/18 11:01:04;;;;;;;37.00;19.33;;;;;;;13.87;94.96;93604.28;5070439;28;20930;-82
2022/11/18 11:03:36;;;;;;;30.83;16.83;;;;;;;14.19;93.63;93598.66;5069711;28;20449;-83
2022/11/18 11:06:29;;;;;;;16.77;8.53;;;;;;;14.47;87.36;93598.81;5069774;28;20452;-83
2022/11/18 11:09:00;;;;;;;3.53;2.63;;;;;;;14.82;80.99;93601.63;5070356;28;20868;-83
2022/11/18 11:11:29;;;;;;;3.10;2.37;;;;;;;15.07;79.81;93596.81;5070479;28;20437;-83
2022/11/18 11:14:04;;;;;;;2.80;2.60;;;;;;;15.31;79.62;93591.09;5070048;28;20488;-84
2022/11/18 11:16:39;;;;;;;7.30;3.10;;;;;;;15.59;77.05;93598.28;5070323;28;20424;-83
2022/11/18 11:19:09;;;;;;;2.70;2.30;;;;;;;15.83;77.54;93604.97;5069941;28;20454;-84
2022/11/18 11:21:36;;;;;;;8.17;4.20;;;;;;;16.06;76.79;93590.47;5070695;28;20447;-81
2022/11/18 12:00:27;;;;;;;37.63;26.63;;;;;;;15.32;92.35;93565.50;5090997;27;20588;-82
2022/11/18 12:03:04;;;;;;;46.73;24.60;;;;;;;14.90;92.36;93571.63;5090803;28;20456;-83
2022/11/18 12:05:34;;;;;;;44.17;26.40;;;;;;;14.80;92.82;93566.69;5091056;28;20981;-81
2022/11/18 12:08:03;;;;;;;52.30;27.27;;;;;;;14.58;93.19;93557.91;5090997;28;21062;-82
2022/11/18 12:10:41;;;;;;;45.67;28.53;;;;;;;14.55;94.34;93561.75;5091410;28;20458;-81
2022/11/18 12:13:24;;;;;;;51.67;33.57;;;;;;;14.45;94.78;93568.31;5091412;28;20439;-81
2022/11/18 12:16:21;;;;;;;43.83;27.40;;;;;;;14.39;94.71;93558.47;5090395;28;20424;-80
2022/11/18 12:18:52;;;;;;;56.27;36.60;;;;;;;14.44;95.19;93556.94;5048670;28;20486;-80
2022/11/18 12:21:59;;;;;;;55.33;33.87;;;;;;;14.45;95.15;93558.56;5048322;28;20516;-81
2022/11/18 12:24:37;;;;;;;46.53;25.40;;;;;;;14.22;94.73;93558.69;4989087;28;20527;-82
2022/11/18 12:27:11;;;;;;;56.37;29.10;;;;;;;14.24;95.76;93569.06;4988877;28;20448;-81
2022/11/18 12:29:58;;;;;;;55.03;32.20;;;;;;;14.26;96.56;93554.69;4989038;28;20443;-81
2022/11/18 12:32:33;;;;;;;54.93;28.40;;;;;;;14.25;96.17;93529.31;4989100;28;20460;-81
2022/11/18 12:35:04;;;;;;;46.97;27.37;;;;;;;14.18;95.75;93520.50;4988898;28;20938;-81
2022/11/18 12:38:00;;;;;;;42.03;23.47;;;;;;;14.23;95.80;93528.69;4989222;28;20445;-81
2022/11/18 12:40:39;;;;;;;58.33;32.87;;;;;;;14.19;95.91;93539.78;4874393;29;20920;-81
2022/11/18 12:45:56;;;;;;;40.73;27.73;;;;;;;14.23;95.82;93520.75;4874065;29;20517;-81
2022/11/18 12:48:34;;;;;;;50.13;25.67;;;;;;;14.16;96.29;93519.84;4874554;29;20458;-82
2022/11/18 12:51:03;;;;;;;48.17;28.58;;;;;;;14.23;97.07;93515.47;4874387;29;20462;-82
2022/11/18 12:53:35;;;;;;;43.67;28.80;;;;;;;14.26;96.62;93527.47;4874871;29;20256;-82
2022/11/18 12:56:11;;;;;;;57.60;30.27;;;;;;;14.32;96.78;93516.19;4904933;29;20456;-82
2022/11/18 12:58:37;;;;;;;67.47;44.33;;;;;;;14.27;96.33;93506.19;4911579;29;20543;-81
2022/11/18 13:01:07;;;;;;;70.37;38.00;;;;;;;14.24;96.81;93498.66;4961654;28;20456;-78
2022/11/18 13:03:36;;;;;;;58.67;39.13;;;;;;;14.23;97.70;93483.81;4988624;28;20503;-81
2022/11/18 13:06:08;;;;;;;68.30;37.40;;;;;;;14.26;97.33;93487.91;4988459;28;20447;-82
2022/11/18 13:08:35;;;;;;;61.77;37.10;;;;;;;14.31;97.28;93497.91;4955980;28;20539;-82
2022/11/18 13:17:50;;;;;;;72.83;41.70;;;;;;;14.43;96.50;93499.06;4975221;28;20437;-81
2022/11/18 13:19:29;;;;;;;18.23;11.53;;;;;;;14.70;86.87;93479.84;5056121;28;20507;-81
2022/11/18 13:24:46;;;;;;;13.83;9.47;;;;;;;15.04;83.74;93488.88;5055762;28;20866;-81
2022/11/18 13:27:31;;;;;;;6.20;3.40;;;;;;;15.55;76.89;93485.94;5056033;28;20452;-81
2022/11/18 13:30:04;;;;;;;4.27;3.87;;;;;;;15.82;75.58;93479.00;5056130;28;20499;-85
2022/11/18 13:32:31;;;;;;;5.60;3.20;;;;;;;16.14;74.10;93480.16;5020992;28;20784;-81
2022/11/18 13:35:07;;;;;;;3.07;2.73;;;;;;;16.23;74.47;93478.97;5055921;28;20458;-81